sensor_id;sensor_type;location;lat;lon;timestamp;P1;durP1;ratioP1;P2;durP2;ratioP2
64282;SDS011;50497;50.720;-2.084;2022-07-29T00:01:25;16.92;;;9.27;;
64282;SDS011;50497;50.720;-2.084;2022-07-29T00:03:50;11.88;;;8.10;;
64282;SDS011;50497;50.720;-2.084;2022-07-29T00:06:16;12.70;;;8.07;;
64282;SDS011;50497;50.720;-2.084;2022-07-29T00:08:42;12.98;;;8.43;;
64282;SDS011;50497;50.720;-2.084;2022-07-29T00:11:12;13.70;;;8.27;;
64282;SDS011;50497;50.720;-2.084;2022-07-29T00:13:37;12.93;;;8.85;;
64282;SDS011;50497;50.720;-2.084;2022-07-29T00:16:03;13.93;;;8.50;;
64282;SDS011;50497;50.720;-2.084;2022-07-29T00:18:30;13.90;;;8.70;;
64282;SDS011;50497;50.720;-2.084;2022-07-29T00:20:55;12.60;;;8.82;;
64282;SDS011;50497;50.720;-2.084;2022-07-29T00:23:20;12.27;;;8.23;;
64282;SDS011;50497;50.720;-2.084;2022-07-29T00:25:47;13.68;;;8.32;;
64282;SDS011;50497;50.720;-2.084;2022-07-29T00:28:13;14.85;;;8.57;;
64282;SDS011;50497;50.720;-2.084;2022-07-29T00:30:38;14.23;;;8.80;;
64282;SDS011;50497;50.720;-2.084;2022-07-29T00:33:07;11.95;;;7.80;;
64282;SDS011;50497;50.720;-2.084;2022-07-29T00:35:32;12.85;;;7.28;;
64282;SDS011;50497;50.720;-2.084;2022-07-29T00:38:11;12.80;;;8.07;;
64282;SDS011;50497;50.720;-2.084;2022-07-29T00:40:38;14.13;;;8.38;;
64282;SDS011;50497;50.720;-2.084;2022-07-29T00:43:04;14.65;;;7.93;;
64282;SDS011;50497;50.720;-2.084;2022-07-29T00:45:30;11.98;;;7.97;;
64282;SDS011;50497;50.720;-2.084;2022-07-29T00:47:56;16.17;;;9.15;;
64282;SDS011;50497;50.720;-2.084;2022-07-29T00:50:21;13.75;;;8.45;;
64282;SDS011;50497;50.720;-2.084;2022-07-29T00:52:47;12.77;;;8.20;;
64282;SDS011;50497;50.720;-2.084;2022-07-29T00:55:14;13.77;;;8.60;;
64282;SDS011;50497;50.720;-2.084;2022-07-29T00:57:44;12.27;;;8.88;;
64282;SDS011;50497;50.720;-2.084;2022-07-29T01:00:15;15.80;;;9.07;;
64282;SDS011;50497;50.720;-2.084;2022-07-29T01:02:47;13.65;;;8.63;;
64282;SDS011;50497;50.720;-2.084;2022-07-29T01:05:13;15.43;;;9.43;;
64282;SDS011;50497;50.720;-2.084;2022-07-29T01:07:44;14.57;;;9.15;;
64282;SDS011;50497;50.720;-2.084;2022-07-29T01:10:12;15.40;;;9.38;;
64282;SDS011;50497;50.720;-2.084;2022-07-29T01:12:39;14.80;;;9.30;;
64282;SDS011;50497;50.720;-2.084;2022-07-29T01:15:07;15.43;;;9.13;;
64282;SDS011;50497;50.720;-2.084;2022-07-29T01:20:25;15.38;;;9.00;;
64282;SDS011;50497;50.720;-2.084;2022-07-29T01:31:25;12.77;;;7.82;;
64282;SDS011;50497;50.720;-2.084;2022-07-29T01:34:02;13.00;;;8.38;;
64282;SDS011;50497;50.720;-2.084;2022-07-29T01:36:32;12.93;;;8.43;;
64282;SDS011;50497;50.720;-2.084;2022-07-29T01:39:21;13.30;;;8.85;;
64282;SDS011;50497;50.720;-2.084;2022-07-29T01:42:12;13.05;;;8.60;;
64282;SDS011;50497;50.720;-2.084;2022-07-29T01:44:48;16.17;;;8.25;;
64282;SDS011;50497;50.720;-2.084;2022-07-29T01:47:20;12.05;;;8.23;;
64282;SDS011;50497;50.720;-2.084;2022-07-29T01:49:51;16.50;;;8.65;;
64282;SDS011;50497;50.720;-2.084;2022-07-29T01:54:53;12.43;;;8.23;;
64282;SDS011;50497;50.720;-2.084;2022-07-29T01:57:26;13.80;;;8.65;;
64282;SDS011;50497;50.720;-2.084;2022-07-29T01:59:58;12.90;;;8.85;;
64282;SDS011;50497;50.720;-2.084;2022-07-29T02:02:26;13.10;;;9.13;;
64282;SDS011;50497;50.720;-2.084;2022-07-29T02:04:53;14.10;;;8.90;;
64282;SDS011;50497;50.720;-2.084;2022-07-29T02:07:22;14.02;;;8.60;;
64282;SDS011;50497;50.720;-2.084;2022-07-29T02:09:58;14.23;;;8.30;;
64282;SDS011;50497;50.720;-2.084;2022-07-29T02:12:30;14.45;;;8.85;;
64282;SDS011;50497;50.720;-2.084;2022-07-29T02:14:58;13.05;;;9.13;;
64282;SDS011;50497;50.720;-2.084;2022-07-29T02:17:27;12.95;;;8.07;;
64282;SDS011;50497;50.720;-2.084;2022-07-29T02:19:59;18.40;;;8.95;;
64282;SDS011;50497;50.720;-2.084;2022-07-29T02:22:26;15.02;;;9.18;;
64282;SDS011;50497;50.720;-2.084;2022-07-29T02:24:55;14.45;;;9.20;;
64282;SDS011;50497;50.720;-2.084;2022-07-29T02:27:23;14.07;;;9.15;;
64282;SDS011;50497;50.720;-2.084;2022-07-29T02:29:52;15.23;;;9.77;;
64282;SDS011;50497;50.720;-2.084;2022-07-29T02:32:19;16.80;;;9.55;;
64282;SDS011;50497;50.720;-2.084;2022-07-29T02:34:47;14.63;;;9.40;;
64282;SDS011;50497;50.720;-2.084;2022-07-29T02:37:15;12.93;;;8.98;;
64282;SDS011;50497;50.720;-2.084;2022-07-29T02:39:43;15.68;;;9.35;;
64282;SDS011;50497;50.720;-2.084;2022-07-29T02:42:11;15.18;;;9.30;;
64282;SDS011;50497;50.720;-2.084;2022-07-29T02:44:40;13.68;;;9.00;;
64282;SDS011;50497;50.720;-2.084;2022-07-29T02:50:20;14.82;;;9.15;;
64282;SDS011;50497;50.720;-2.084;2022-07-29T02:52:55;16.67;;;9.60;;
64282;SDS011;50497;50.720;-2.084;2022-07-29T02:58:20;13.82;;;8.98;;
64282;SDS011;50497;50.720;-2.084;2022-07-29T03:00:53;15.65;;;8.35;;
64282;SDS011;50497;50.720;-2.084;2022-07-29T03:03:22;15.35;;;9.00;;
64282;SDS011;50497;50.720;-2.084;2022-07-29T03:05:56;15.75;;;8.85;;
64282;SDS011;50497;50.720;-2.084;2022-07-29T03:08:25;15.20;;;9.00;;
64282;SDS011;50497;50.720;-2.084;2022-07-29T03:10:52;13.80;;;8.85;;
64282;SDS011;50497;50.720;-2.084;2022-07-29T03:15:44;13.40;;;8.68;;
64282;SDS011;50497;50.720;-2.084;2022-07-29T03:18:11;15.65;;;8.60;;
64282;SDS011;50497;50.720;-2.084;2022-07-29T03:20:38;15.05;;;9.07;;
64282;SDS011;50497;50.720;-2.084;2022-07-29T03:23:04;13.60;;;8.52;;
64282;SDS011;50497;50.720;-2.084;2022-07-29T03:25:30;14.80;;;8.98;;
64282;SDS011;50497;50.720;-2.084;2022-07-29T03:27:56;13.27;;;8.65;;
64282;SDS011;50497;50.720;-2.084;2022-07-29T03:30:22;17.70;;;9.80;;
64282;SDS011;50497;50.720;-2.084;2022-07-29T03:32:48;15.38;;;9.00;;
64282;SDS011;50497;50.720;-2.084;2022-07-29T03:35:15;14.95;;;8.77;;
64282;SDS011;50497;50.720;-2.084;2022-07-29T03:37:44;12.45;;;8.45;;
64282;SDS011;50497;50.720;-2.084;2022-07-29T03:40:17;15.88;;;9.25;;
64282;SDS011;50497;50.720;-2.084;2022-07-29T03:42:50;15.13;;;8.70;;
64282;SDS011;50497;50.720;-2.084;2022-07-29T03:45:18;14.50;;;8.27;;
64282;SDS011;50497;50.720;-2.084;2022-07-29T03:47:47;18.35;;;9.52;;
64282;SDS011;50497;50.720;-2.084;2022-07-29T03:50:18;13.48;;;8.93;;
64282;SDS011;50497;50.720;-2.084;2022-07-29T03:52:46;13.95;;;9.02;;
64282;SDS011;50497;50.720;-2.084;2022-07-29T03:55:15;16.30;;;8.80;;
64282;SDS011;50497;50.720;-2.084;2022-07-29T03:57:41;15.57;;;9.18;;
64282;SDS011;50497;50.720;-2.084;2022-07-29T04:00:09;14.02;;;8.50;;
64282;SDS011;50497;50.720;-2.084;2022-07-29T04:02:39;14.45;;;9.07;;
64282;SDS011;50497;50.720;-2.084;2022-07-29T04:05:05;15.15;;;8.85;;
64282;SDS011;50497;50.720;-2.084;2022-07-29T04:07:36;15.00;;;9.40;;
64282;SDS011;50497;50.720;-2.084;2022-07-29T04:10:02;13.50;;;8.70;;
64282;SDS011;50497;50.720;-2.084;2022-07-29T04:12:28;12.98;;;7.75;;
64282;SDS011;50497;50.720;-2.084;2022-07-29T04:14:53;13.48;;;8.27;;
64282;SDS011;50497;50.720;-2.084;2022-07-29T04:17:23;13.65;;;8.55;;
64282;SDS011;50497;50.720;-2.084;2022-07-29T04:19:48;13.35;;;8.32;;
64282;SDS011;50497;50.720;-2.084;2022-07-29T04:22:14;12.10;;;7.78;;
64282;SDS011;50497;50.720;-2.084;2022-07-29T04:24:40;14.07;;;8.40;;
64282;SDS011;50497;50.720;-2.084;2022-07-29T04:27:05;13.02;;;8.15;;
64282;SDS011;50497;50.720;-2.084;2022-07-29T04:29:31;14.68;;;8.68;;
64282;SDS011;50497;50.720;-2.084;2022-07-29T04:31:56;13.38;;;8.23;;
64282;SDS011;50497;50.720;-2.084;2022-07-29T04:34:22;13.90;;;7.88;;
64282;SDS011;50497;50.720;-2.084;2022-07-29T04:36:48;13.60;;;7.85;;
64282;SDS011;50497;50.720;-2.084;2022-07-29T04:39:13;11.85;;;7.72;;
64282;SDS011;50497;50.720;-2.084;2022-07-29T04:41:45;14.45;;;8.55;;
64282;SDS011;50497;50.720;-2.084;2022-07-29T04:44:14;15.43;;;8.38;;
64282;SDS011;50497;50.720;-2.084;2022-07-29T04:46:43;13.75;;;8.10;;
64282;SDS011;50497;50.720;-2.084;2022-07-29T04:49:15;16.05;;;8.38;;
64282;SDS011;50497;50.720;-2.084;2022-07-29T04:51:43;14.23;;;8.25;;
64282;SDS011;50497;50.720;-2.084;2022-07-29T04:54:09;15.07;;;7.63;;
64282;SDS011;50497;50.720;-2.084;2022-07-29T04:56:35;12.82;;;8.18;;
64282;SDS011;50497;50.720;-2.084;2022-07-29T04:59:04;13.65;;;7.90;;
64282;SDS011;50497;50.720;-2.084;2022-07-29T05:01:32;12.90;;;7.45;;
64282;SDS011;50497;50.720;-2.084;2022-07-29T05:04:02;14.93;;;8.10;;
64282;SDS011;50497;50.720;-2.084;2022-07-29T05:06:31;11.40;;;7.35;;
64282;SDS011;50497;50.720;-2.084;2022-07-29T05:08:57;14.77;;;7.60;;
64282;SDS011;50497;50.720;-2.084;2022-07-29T05:11:23;14.63;;;8.43;;
64282;SDS011;50497;50.720;-2.084;2022-07-29T05:13:48;11.57;;;7.13;;
64282;SDS011;50497;50.720;-2.084;2022-07-29T05:16:13;13.00;;;7.30;;
64282;SDS011;50497;50.720;-2.084;2022-07-29T05:18:39;13.18;;;7.47;;
64282;SDS011;50497;50.720;-2.084;2022-07-29T05:21:04;15.02;;;7.95;;
64282;SDS011;50497;50.720;-2.084;2022-07-29T05:23:30;12.25;;;7.28;;
64282;SDS011;50497;50.720;-2.084;2022-07-29T05:25:56;13.60;;;7.63;;
64282;SDS011;50497;50.720;-2.084;2022-07-29T05:28:26;14.88;;;8.13;;
64282;SDS011;50497;50.720;-2.084;2022-07-29T05:30:53;14.57;;;8.05;;
64282;SDS011;50497;50.720;-2.084;2022-07-29T05:33:19;11.98;;;6.97;;
64282;SDS011;50497;50.720;-2.084;2022-07-29T05:35:44;12.68;;;7.15;;
64282;SDS011;50497;50.720;-2.084;2022-07-29T05:38:12;12.80;;;7.53;;
64282;SDS011;50497;50.720;-2.084;2022-07-29T05:40:42;12.70;;;7.43;;
64282;SDS011;50497;50.720;-2.084;2022-07-29T05:43:08;13.82;;;7.03;;
64282;SDS011;50497;50.720;-2.084;2022-07-29T05:45:33;16.63;;;7.60;;
64282;SDS011;50497;50.720;-2.084;2022-07-29T05:47:59;14.55;;;7.65;;
64282;SDS011;50497;50.720;-2.084;2022-07-29T05:50:28;13.02;;;7.90;;
64282;SDS011;50497;50.720;-2.084;2022-07-29T05:52:53;11.27;;;6.45;;
64282;SDS011;50497;50.720;-2.084;2022-07-29T05:55:19;11.23;;;6.78;;
64282;SDS011;50497;50.720;-2.084;2022-07-29T05:57:44;11.13;;;6.80;;
64282;SDS011;50497;50.720;-2.084;2022-07-29T06:00:12;12.10;;;6.57;;
64282;SDS011;50497;50.720;-2.084;2022-07-29T06:02:42;9.82;;;6.60;;
64282;SDS011;50497;50.720;-2.084;2022-07-29T06:05:08;15.13;;;6.68;;
64282;SDS011;50497;50.720;-2.084;2022-07-29T06:07:34;19.15;;;8.23;;
64282;SDS011;50497;50.720;-2.084;2022-07-29T06:10:00;12.30;;;7.57;;
64282;SDS011;50497;50.720;-2.084;2022-07-29T06:12:30;12.52;;;6.53;;
64282;SDS011;50497;50.720;-2.084;2022-07-29T06:14:56;12.23;;;6.50;;
64282;SDS011;50497;50.720;-2.084;2022-07-29T06:17:21;11.25;;;6.40;;
64282;SDS011;50497;50.720;-2.084;2022-07-29T06:19:47;11.95;;;5.97;;
64282;SDS011;50497;50.720;-2.084;2022-07-29T06:22:14;12.25;;;5.50;;
64282;SDS011;50497;50.720;-2.084;2022-07-29T06:24:41;10.70;;;5.68;;
64282;SDS011;50497;50.720;-2.084;2022-07-29T06:27:10;12.63;;;6.20;;
64282;SDS011;50497;50.720;-2.084;2022-07-29T06:29:36;10.82;;;5.43;;
64282;SDS011;50497;50.720;-2.084;2022-07-29T06:32:06;13.48;;;6.50;;
64282;SDS011;50497;50.720;-2.084;2022-07-29T06:34:36;11.55;;;5.63;;
64282;SDS011;50497;50.720;-2.084;2022-07-29T06:37:09;9.90;;;5.03;;
64282;SDS011;50497;50.720;-2.084;2022-07-29T06:39:35;13.02;;;5.88;;
64282;SDS011;50497;50.720;-2.084;2022-07-29T06:42:04;9.30;;;5.20;;
64282;SDS011;50497;50.720;-2.084;2022-07-29T06:44:31;9.50;;;5.40;;
64282;SDS011;50497;50.720;-2.084;2022-07-29T06:46:59;8.48;;;5.53;;
64282;SDS011;50497;50.720;-2.084;2022-07-29T06:49:26;13.93;;;5.93;;
64282;SDS011;50497;50.720;-2.084;2022-07-29T06:51:52;10.27;;;5.22;;
64282;SDS011;50497;50.720;-2.084;2022-07-29T06:54:22;8.70;;;4.97;;
64282;SDS011;50497;50.720;-2.084;2022-07-29T06:56:50;9.35;;;5.10;;
64282;SDS011;50497;50.720;-2.084;2022-07-29T06:59:24;11.05;;;5.07;;
64282;SDS011;50497;50.720;-2.084;2022-07-29T07:01:50;8.40;;;4.47;;
64282;SDS011;50497;50.720;-2.084;2022-07-29T07:06:42;10.68;;;5.10;;
64282;SDS011;50497;50.720;-2.084;2022-07-29T07:09:07;10.70;;;5.10;;
64282;SDS011;50497;50.720;-2.084;2022-07-29T07:11:33;8.52;;;4.53;;
64282;SDS011;50497;50.720;-2.084;2022-07-29T07:13:59;9.23;;;4.90;;
64282;SDS011;50497;50.720;-2.084;2022-07-29T07:16:25;10.73;;;4.95;;
64282;SDS011;50497;50.720;-2.084;2022-07-29T07:18:50;12.88;;;5.60;;
64282;SDS011;50497;50.720;-2.084;2022-07-29T07:21:16;10.25;;;4.68;;
64282;SDS011;50497;50.720;-2.084;2022-07-29T07:23:41;8.93;;;4.47;;
64282;SDS011;50497;50.720;-2.084;2022-07-29T07:26:07;10.10;;;4.70;;
64282;SDS011;50497;50.720;-2.084;2022-07-29T07:28:33;9.45;;;4.60;;
64282;SDS011;50497;50.720;-2.084;2022-07-29T07:31:01;10.55;;;4.40;;
64282;SDS011;50497;50.720;-2.084;2022-07-29T07:35:52;9.95;;;3.78;;
64282;SDS011;50497;50.720;-2.084;2022-07-29T07:40:44;9.13;;;3.80;;
64282;SDS011;50497;50.720;-2.084;2022-07-29T07:43:11;8.27;;;3.50;;
64282;SDS011;50497;50.720;-2.084;2022-07-29T07:48:03;7.15;;;3.28;;
64282;SDS011;50497;50.720;-2.084;2022-07-29T07:50:28;7.10;;;3.28;;
64282;SDS011;50497;50.720;-2.084;2022-07-29T07:52:55;8.05;;;3.33;;
64282;SDS011;50497;50.720;-2.084;2022-07-29T07:55:24;6.45;;;2.67;;
64282;SDS011;50497;50.720;-2.084;2022-07-29T07:57:51;6.28;;;2.80;;
64282;SDS011;50497;50.720;-2.084;2022-07-29T08:00:17;6.55;;;2.95;;
64282;SDS011;50497;50.720;-2.084;2022-07-29T08:02:42;6.90;;;3.00;;
64282;SDS011;50497;50.720;-2.084;2022-07-29T08:05:08;6.47;;;2.88;;
64282;SDS011;50497;50.720;-2.084;2022-07-29T08:07:36;7.20;;;3.30;;
64282;SDS011;50497;50.720;-2.084;2022-07-29T08:10:01;7.72;;;3.00;;
64282;SDS011;50497;50.720;-2.084;2022-07-29T08:12:27;9.07;;;3.22;;
64282;SDS011;50497;50.720;-2.084;2022-07-29T08:14:53;7.63;;;2.95;;
64282;SDS011;50497;50.720;-2.084;2022-07-29T08:19:44;6.63;;;3.00;;
64282;SDS011;50497;50.720;-2.084;2022-07-29T08:24:36;7.70;;;2.90;;
64282;SDS011;50497;50.720;-2.084;2022-07-29T08:29:58;8.23;;;3.13;;
64282;SDS011;50497;50.720;-2.084;2022-07-29T08:34:50;8.18;;;3.20;;
64282;SDS011;50497;50.720;-2.084;2022-07-29T08:37:17;7.25;;;3.10;;
64282;SDS011;50497;50.720;-2.084;2022-07-29T08:39:43;8.68;;;3.35;;
64282;SDS011;50497;50.720;-2.084;2022-07-29T08:42:08;6.53;;;3.15;;
64282;SDS011;50497;50.720;-2.084;2022-07-29T08:44:35;7.75;;;3.22;;
64282;SDS011;50497;50.720;-2.084;2022-07-29T08:47:01;8.18;;;2.90;;
64282;SDS011;50497;50.720;-2.084;2022-07-29T08:49:27;8.73;;;3.30;;
64282;SDS011;50497;50.720;-2.084;2022-07-29T08:51:52;7.35;;;2.97;;
64282;SDS011;50497;50.720;-2.084;2022-07-29T08:54:18;8.13;;;3.28;;
64282;SDS011;50497;50.720;-2.084;2022-07-29T08:56:50;7.85;;;3.28;;
64282;SDS011;50497;50.720;-2.084;2022-07-29T08:59:17;7.22;;;2.90;;
64282;SDS011;50497;50.720;-2.084;2022-07-29T09:01:46;8.10;;;3.10;;
64282;SDS011;50497;50.720;-2.084;2022-07-29T09:04:13;6.95;;;2.95;;
64282;SDS011;50497;50.720;-2.084;2022-07-29T09:06:43;9.10;;;2.97;;
64282;SDS011;50497;50.720;-2.084;2022-07-29T09:09:11;6.32;;;2.95;;
64282;SDS011;50497;50.720;-2.084;2022-07-29T09:11:39;6.18;;;2.80;;
64282;SDS011;50497;50.720;-2.084;2022-07-29T09:14:05;6.75;;;2.75;;
64282;SDS011;50497;50.720;-2.084;2022-07-29T09:19:32;8.57;;;2.93;;
64282;SDS011;50497;50.720;-2.084;2022-07-29T09:22:00;5.20;;;2.47;;
64282;SDS011;50497;50.720;-2.084;2022-07-29T09:27:00;7.28;;;3.35;;
64282;SDS011;50497;50.720;-2.084;2022-07-29T09:29:26;5.65;;;2.40;;
64282;SDS011;50497;50.720;-2.084;2022-07-29T09:31:52;5.82;;;2.53;;
64282;SDS011;50497;50.720;-2.084;2022-07-29T09:34:26;4.95;;;2.40;;
64282;SDS011;50497;50.720;-2.084;2022-07-29T09:36:55;8.27;;;2.75;;
64282;SDS011;50497;50.720;-2.084;2022-07-29T09:39:28;6.90;;;2.53;;
64282;SDS011;50497;50.720;-2.084;2022-07-29T09:41:56;6.53;;;2.38;;
64282;SDS011;50497;50.720;-2.084;2022-07-29T09:44:23;5.43;;;2.30;;
64282;SDS011;50497;50.720;-2.084;2022-07-29T09:49:24;6.78;;;2.65;;
64282;SDS011;50497;50.720;-2.084;2022-07-29T09:54:45;6.35;;;2.50;;
64282;SDS011;50497;50.720;-2.084;2022-07-29T09:57:23;6.72;;;2.90;;
64282;SDS011;50497;50.720;-2.084;2022-07-29T09:59:57;8.45;;;3.00;;
64282;SDS011;50497;50.720;-2.084;2022-07-29T10:02:29;6.30;;;2.92;;
64282;SDS011;50497;50.720;-2.084;2022-07-29T10:05:00;7.53;;;3.00;;
64282;SDS011;50497;50.720;-2.084;2022-07-29T10:07:44;8.63;;;3.53;;
64282;SDS011;50497;50.720;-2.084;2022-07-29T10:10:25;6.82;;;3.00;;
64282;SDS011;50497;50.720;-2.084;2022-07-29T10:13:12;8.93;;;3.13;;
64282;SDS011;50497;50.720;-2.084;2022-07-29T10:15:40;6.80;;;3.20;;
64282;SDS011;50497;50.720;-2.084;2022-07-29T10:18:09;6.15;;;2.80;;
64282;SDS011;50497;50.720;-2.084;2022-07-29T10:20:37;6.90;;;2.92;;
64282;SDS011;50497;50.720;-2.084;2022-07-29T10:23:04;7.28;;;2.70;;
64282;SDS011;50497;50.720;-2.084;2022-07-29T10:25:30;7.72;;;3.00;;
64282;SDS011;50497;50.720;-2.084;2022-07-29T10:27:57;7.18;;;3.10;;
64282;SDS011;50497;50.720;-2.084;2022-07-29T10:30:23;9.95;;;3.20;;
64282;SDS011;50497;50.720;-2.084;2022-07-29T10:35:43;8.10;;;3.28;;
64282;SDS011;50497;50.720;-2.084;2022-07-29T10:41:23;9.55;;;3.20;;
64282;SDS011;50497;50.720;-2.084;2022-07-29T10:44:20;7.22;;;3.20;;
64282;SDS011;50497;50.720;-2.084;2022-07-29T10:46:48;10.27;;;3.40;;
64282;SDS011;50497;50.720;-2.084;2022-07-29T10:52:22;8.60;;;3.00;;
64282;SDS011;50497;50.720;-2.084;2022-07-29T10:59:51;6.97;;;3.38;;
64282;SDS011;50497;50.720;-2.084;2022-07-29T11:05:07;7.10;;;3.08;;
64282;SDS011;50497;50.720;-2.084;2022-07-29T11:07:40;11.82;;;3.10;;
64282;SDS011;50497;50.720;-2.084;2022-07-29T11:10:44;8.63;;;3.30;;
64282;SDS011;50497;50.720;-2.084;2022-07-29T11:13:09;7.03;;;3.03;;
64282;SDS011;50497;50.720;-2.084;2022-07-29T11:18:26;7.38;;;3.00;;
64282;SDS011;50497;50.720;-2.084;2022-07-29T11:20:51;5.30;;;2.55;;
64282;SDS011;50497;50.720;-2.084;2022-07-29T11:23:21;5.07;;;2.30;;
64282;SDS011;50497;50.720;-2.084;2022-07-29T11:28:43;7.57;;;2.60;;
64282;SDS011;50497;50.720;-2.084;2022-07-29T11:31:13;6.57;;;3.05;;
64282;SDS011;50497;50.720;-2.084;2022-07-29T11:33:44;7.93;;;2.95;;
64282;SDS011;50497;50.720;-2.084;2022-07-29T11:36:11;7.50;;;3.00;;
64282;SDS011;50497;50.720;-2.084;2022-07-29T11:38:38;7.97;;;2.85;;
64282;SDS011;50497;50.720;-2.084;2022-07-29T11:43:53;6.03;;;2.95;;
64282;SDS011;50497;50.720;-2.084;2022-07-29T11:49:24;5.85;;;2.70;;
64282;SDS011;50497;50.720;-2.084;2022-07-29T11:51:52;6.32;;;2.60;;
64282;SDS011;50497;50.720;-2.084;2022-07-29T11:54:26;5.25;;;2.63;;
64282;SDS011;50497;50.720;-2.084;2022-07-29T11:56:57;5.47;;;2.35;;
64282;SDS011;50497;50.720;-2.084;2022-07-29T11:59:23;5.07;;;2.30;;
64282;SDS011;50497;50.720;-2.084;2022-07-29T12:01:53;6.00;;;2.10;;
64282;SDS011;50497;50.720;-2.084;2022-07-29T12:04:20;5.38;;;2.03;;
64282;SDS011;50497;50.720;-2.084;2022-07-29T12:06:49;4.38;;;2.08;;
64282;SDS011;50497;50.720;-2.084;2022-07-29T12:09:16;4.85;;;1.90;;
64282;SDS011;50497;50.720;-2.084;2022-07-29T12:11:42;4.90;;;1.70;;
64282;SDS011;50497;50.720;-2.084;2022-07-29T12:14:08;6.47;;;1.92;;
64282;SDS011;50497;50.720;-2.084;2022-07-29T12:16:35;5.57;;;2.40;;
64282;SDS011;50497;50.720;-2.084;2022-07-29T12:19:03;6.75;;;2.30;;
64282;SDS011;50497;50.720;-2.084;2022-07-29T12:21:48;8.90;;;2.40;;
64282;SDS011;50497;50.720;-2.084;2022-07-29T12:24:20;5.43;;;2.35;;
64282;SDS011;50497;50.720;-2.084;2022-07-29T12:26:53;6.10;;;2.60;;
64282;SDS011;50497;50.720;-2.084;2022-07-29T12:29:20;5.60;;;2.38;;
64282;SDS011;50497;50.720;-2.084;2022-07-29T12:31:45;6.13;;;2.60;;
64282;SDS011;50497;50.720;-2.084;2022-07-29T12:34:14;6.10;;;2.40;;
64282;SDS011;50497;50.720;-2.084;2022-07-29T12:36:41;6.22;;;2.45;;
64282;SDS011;50497;50.720;-2.084;2022-07-29T12:39:11;7.90;;;2.50;;
64282;SDS011;50497;50.720;-2.084;2022-07-29T12:41:37;6.07;;;2.40;;
64282;SDS011;50497;50.720;-2.084;2022-07-29T12:44:04;8.35;;;2.53;;
64282;SDS011;50497;50.720;-2.084;2022-07-29T12:46:29;6.88;;;2.60;;
64282;SDS011;50497;50.720;-2.084;2022-07-29T12:48:55;6.15;;;2.53;;
64282;SDS011;50497;50.720;-2.084;2022-07-29T12:51:37;6.35;;;2.60;;
64282;SDS011;50497;50.720;-2.084;2022-07-29T12:56:31;5.85;;;2.70;;
64282;SDS011;50497;50.720;-2.084;2022-07-29T12:58:56;5.53;;;2.38;;
64282;SDS011;50497;50.720;-2.084;2022-07-29T13:01:22;6.40;;;2.50;;
64282;SDS011;50497;50.720;-2.084;2022-07-29T13:03:52;5.10;;;2.22;;
64282;SDS011;50497;50.720;-2.084;2022-07-29T13:06:36;8.20;;;2.88;;
64282;SDS011;50497;50.720;-2.084;2022-07-29T13:09:04;5.35;;;2.53;;
64282;SDS011;50497;50.720;-2.084;2022-07-29T13:11:33;6.82;;;2.47;;
64282;SDS011;50497;50.720;-2.084;2022-07-29T13:14:07;6.78;;;2.38;;
64282;SDS011;50497;50.720;-2.084;2022-07-29T13:16:35;5.00;;;2.20;;
64282;SDS011;50497;50.720;-2.084;2022-07-29T13:19:08;7.22;;;2.50;;
64282;SDS011;50497;50.720;-2.084;2022-07-29T13:21:37;6.40;;;2.53;;
64282;SDS011;50497;50.720;-2.084;2022-07-29T13:24:04;5.57;;;2.42;;
64282;SDS011;50497;50.720;-2.084;2022-07-29T13:26:35;7.88;;;2.72;;
64282;SDS011;50497;50.720;-2.084;2022-07-29T13:29:05;9.27;;;2.70;;
64282;SDS011;50497;50.720;-2.084;2022-07-29T13:31:31;7.30;;;2.50;;
64282;SDS011;50497;50.720;-2.084;2022-07-29T13:33:56;5.65;;;2.20;;
64282;SDS011;50497;50.720;-2.084;2022-07-29T13:36:23;5.65;;;2.58;;
64282;SDS011;50497;50.720;-2.084;2022-07-29T13:38:48;6.53;;;2.60;;
64282;SDS011;50497;50.720;-2.084;2022-07-29T13:41:14;6.70;;;2.60;;
64282;SDS011;50497;50.720;-2.084;2022-07-29T13:43:39;5.25;;;2.50;;
64282;SDS011;50497;50.720;-2.084;2022-07-29T13:46:05;6.07;;;2.50;;
64282;SDS011;50497;50.720;-2.084;2022-07-29T13:48:30;5.30;;;2.40;;
64282;SDS011;50497;50.720;-2.084;2022-07-29T13:50:56;7.13;;;2.47;;
64282;SDS011;50497;50.720;-2.084;2022-07-29T13:53:21;6.63;;;2.35;;
64282;SDS011;50497;50.720;-2.084;2022-07-29T13:55:47;7.20;;;2.78;;
64282;SDS011;50497;50.720;-2.084;2022-07-29T13:58:13;5.50;;;2.30;;
64282;SDS011;50497;50.720;-2.084;2022-07-29T14:00:38;12.68;;;2.75;;
64282;SDS011;50497;50.720;-2.084;2022-07-29T14:03:03;5.63;;;2.20;;
64282;SDS011;50497;50.720;-2.084;2022-07-29T14:05:29;5.13;;;2.33;;
64282;SDS011;50497;50.720;-2.084;2022-07-29T14:07:54;4.88;;;2.30;;
64282;SDS011;50497;50.720;-2.084;2022-07-29T14:10:20;5.47;;;2.25;;
64282;SDS011;50497;50.720;-2.084;2022-07-29T14:12:45;8.43;;;2.60;;
64282;SDS011;50497;50.720;-2.084;2022-07-29T14:15:11;5.20;;;2.30;;
64282;SDS011;50497;50.720;-2.084;2022-07-29T14:17:36;7.65;;;2.28;;
64282;SDS011;50497;50.720;-2.084;2022-07-29T14:20:02;6.05;;;2.10;;
64282;SDS011;50497;50.720;-2.084;2022-07-29T14:22:28;5.03;;;2.20;;
64282;SDS011;50497;50.720;-2.084;2022-07-29T14:24:54;5.05;;;2.30;;
64282;SDS011;50497;50.720;-2.084;2022-07-29T14:27:20;5.30;;;2.30;;
64282;SDS011;50497;50.720;-2.084;2022-07-29T14:29:46;6.53;;;2.30;;
64282;SDS011;50497;50.720;-2.084;2022-07-29T14:32:11;5.60;;;2.25;;
64282;SDS011;50497;50.720;-2.084;2022-07-29T14:34:39;5.65;;;2.40;;
64282;SDS011;50497;50.720;-2.084;2022-07-29T14:37:06;6.53;;;2.40;;
64282;SDS011;50497;50.720;-2.084;2022-07-29T14:39:33;6.70;;;2.25;;
64282;SDS011;50497;50.720;-2.084;2022-07-29T14:42:00;8.52;;;2.63;;
64282;SDS011;50497;50.720;-2.084;2022-07-29T14:44:26;5.68;;;2.20;;
64282;SDS011;50497;50.720;-2.084;2022-07-29T14:47:00;6.20;;;2.33;;
64282;SDS011;50497;50.720;-2.084;2022-07-29T14:49:26;4.85;;;2.38;;
64282;SDS011;50497;50.720;-2.084;2022-07-29T14:51:52;6.57;;;2.30;;
64282;SDS011;50497;50.720;-2.084;2022-07-29T14:54:17;5.80;;;2.30;;
64282;SDS011;50497;50.720;-2.084;2022-07-29T14:56:43;4.97;;;2.42;;
64282;SDS011;50497;50.720;-2.084;2022-07-29T14:59:09;4.55;;;2.38;;
64282;SDS011;50497;50.720;-2.084;2022-07-29T15:01:34;6.63;;;2.60;;
64282;SDS011;50497;50.720;-2.084;2022-07-29T15:04:00;5.20;;;2.30;;
64282;SDS011;50497;50.720;-2.084;2022-07-29T15:06:26;6.88;;;2.55;;
64282;SDS011;50497;50.720;-2.084;2022-07-29T15:08:51;4.25;;;2.17;;
64282;SDS011;50497;50.720;-2.084;2022-07-29T15:11:17;6.30;;;2.28;;
64282;SDS011;50497;50.720;-2.084;2022-07-29T15:13:42;6.10;;;2.38;;
64282;SDS011;50497;50.720;-2.084;2022-07-29T15:16:08;6.28;;;2.63;;
64282;SDS011;50497;50.720;-2.084;2022-07-29T15:18:34;7.18;;;2.33;;
64282;SDS011;50497;50.720;-2.084;2022-07-29T15:21:00;8.18;;;2.40;;
64282;SDS011;50497;50.720;-2.084;2022-07-29T15:23:26;7.13;;;2.50;;
64282;SDS011;50497;50.720;-2.084;2022-07-29T15:25:52;6.85;;;2.65;;
64282;SDS011;50497;50.720;-2.084;2022-07-29T15:28:18;8.88;;;2.50;;
64282;SDS011;50497;50.720;-2.084;2022-07-29T15:30:43;6.60;;;2.20;;
64282;SDS011;50497;50.720;-2.084;2022-07-29T15:33:09;6.47;;;2.40;;
64282;SDS011;50497;50.720;-2.084;2022-07-29T15:35:38;5.45;;;2.60;;
64282;SDS011;50497;50.720;-2.084;2022-07-29T15:38:04;4.97;;;2.40;;
64282;SDS011;50497;50.720;-2.084;2022-07-29T15:40:29;6.03;;;2.60;;
64282;SDS011;50497;50.720;-2.084;2022-07-29T15:42:55;5.13;;;2.30;;
64282;SDS011;50497;50.720;-2.084;2022-07-29T15:45:21;4.40;;;2.20;;
64282;SDS011;50497;50.720;-2.084;2022-07-29T15:47:47;5.60;;;2.30;;
64282;SDS011;50497;50.720;-2.084;2022-07-29T15:50:12;13.10;;;2.65;;
64282;SDS011;50497;50.720;-2.084;2022-07-29T15:52:41;6.88;;;2.53;;
64282;SDS011;50497;50.720;-2.084;2022-07-29T15:55:07;6.75;;;2.22;;
64282;SDS011;50497;50.720;-2.084;2022-07-29T15:57:33;5.80;;;2.50;;